createdAt,value
2023-03-17T00:19:15.588Z,22.05
2023-03-17T00:20:15.537Z,22.06
2023-03-17T00:21:15.488Z,22.05
2023-03-17T00:22:15.438Z,22.05
2023-03-17T00:23:15.398Z,22.05
2023-03-17T00:24:15.485Z,22.05
2023-03-17T00:25:15.286Z,22.05
2023-03-17T00:26:15.239Z,22.06
2023-03-17T00:27:15.191Z,22.05
2023-03-17T00:28:15.139Z,22.05
2023-03-17T00:29:15.076Z,22.05
2023-03-17T00:30:15.029Z,22.06
2023-03-17T00:31:15.041Z,22.05
2023-03-17T00:32:14.923Z,22.05
2023-03-17T00:33:14.885Z,22.06
2023-03-17T00:34:14.829Z,22.06
2023-03-17T00:35:14.840Z,22.05
2023-03-17T00:36:14.736Z,22.06
2023-03-17T00:37:14.688Z,22.05
2023-03-17T00:38:14.639Z,22.05
2023-03-17T00:41:25.125Z,22.04
2023-03-17T00:42:25.144Z,22.04
2023-03-17T00:43:25.167Z,22.05
2023-03-17T00:44:25.197Z,22.04
2023-03-17T00:45:25.222Z,22.04
2023-03-17T00:46:25.283Z,22.05
2023-03-17T00:47:25.270Z,22.05
2023-03-17T00:48:25.298Z,22.04
2023-03-17T00:49:25.324Z,22.03
2023-03-17T02:15:28.011Z,21.99
2023-03-17T02:16:28.108Z,21.99
2023-03-17T02:17:28.127Z,22.00
2023-03-17T02:18:28.187Z,21.99
2023-03-17T02:19:28.239Z,21.99
2023-03-17T02:20:28.578Z,21.99
2023-03-17T02:21:28.334Z,21.99
2023-03-17T02:22:28.396Z,21.99
2023-03-17T02:23:28.482Z,21.99
2023-03-17T02:24:28.520Z,21.99
2023-03-17T02:25:28.575Z,21.99
2023-03-17T02:26:28.648Z,21.98
2023-03-17T02:27:28.698Z,21.99
2023-03-17T02:28:28.774Z,21.99
2023-03-17T02:29:28.810Z,21.99
2023-03-17T02:30:29.189Z,21.99
2023-03-17T02:31:28.948Z,21.99
2023-03-17T02:32:29.082Z,21.98
2023-03-17T02:33:29.147Z,21.98
2023-03-17T02:34:29.139Z,21.98
2023-03-17T02:35:29.210Z,21.97
2023-03-17T02:36:29.315Z,21.98
2023-03-17T02:37:29.344Z,21.97
2023-03-17T02:38:29.403Z,21.98
2023-03-17T04:35:36.636Z,22.13
2023-03-17T04:36:36.642Z,22.13
2023-03-17T05:10:37.997Z,22.29
2023-03-17T05:11:38.026Z,22.29
2023-03-17T05:12:38.062Z,22.29
2023-03-17T05:13:38.083Z,22.30
2023-03-17T05:14:38.129Z,22.30
2023-03-17T05:15:38.221Z,22.31
2023-03-17T05:16:38.317Z,22.30
2023-03-17T05:17:38.293Z,22.30
2023-03-17T05:18:38.319Z,22.31
2023-03-17T05:19:38.350Z,22.32
2023-03-17T05:20:38.388Z,22.31
2023-03-17T05:21:38.414Z,22.32
2023-03-17T05:22:38.438Z,22.32
2023-03-17T05:23:38.454Z,22.33
2023-03-17T05:24:38.486Z,22.33
2023-03-17T05:25:38.511Z,22.33
2023-03-17T05:26:38.628Z,22.33
2023-03-17T05:27:38.684Z,22.34
2023-03-17T05:28:38.762Z,22.34
2023-03-17T05:29:38.719Z,22.33
2023-03-17T05:30:38.798Z,22.34
2023-03-17T05:31:38.776Z,22.34
2023-03-17T05:32:38.921Z,22.34
2023-03-17T05:33:38.993Z,22.34
2023-03-17T05:34:39.019Z,22.34
2023-03-17T05:35:39.076Z,22.36
2023-03-17T05:36:39.076Z,22.36
2023-03-17T05:37:39.106Z,22.36
2023-03-17T05:38:39.233Z,22.36
2023-03-17T05:39:39.374Z,22.36
2023-03-17T05:40:39.396Z,22.36
2023-03-17T05:41:39.423Z,22.36
2023-03-17T05:42:39.455Z,22.36
2023-03-17T05:43:39.488Z,22.36
2023-03-17T05:44:39.511Z,22.37
2023-03-17T05:45:39.637Z,22.37
2023-03-17T05:46:39.660Z,22.37
2023-03-17T05:47:39.687Z,22.38
2023-03-17T05:48:39.705Z,22.37
2023-03-17T05:49:39.734Z,22.37
2023-03-17T05:50:39.780Z,22.38
2023-03-17T05:51:39.793Z,22.38
2023-03-17T05:52:39.813Z,22.38
2023-03-17T05:53:39.842Z,22.39
2023-03-17T05:54:39.873Z,22.38
2023-03-17T05:55:39.891Z,22.38
2023-03-17T05:56:40.009Z,22.38
2023-03-17T05:57:40.027Z,22.39
2023-03-17T05:58:40.063Z,22.39
2023-03-17T06:08:40.365Z,22.40
2023-03-17T06:22:51.654Z,22.41
2023-03-17T06:24:40.865Z,22.42
2023-03-17T06:25:40.927Z,22.42
2023-03-17T06:26:40.916Z,22.43
2023-03-17T06:27:40.967Z,22.45
2023-03-17T06:28:40.960Z,22.46
2023-03-17T06:29:40.991Z,22.47
2023-03-17T06:30:41.108Z,22.49
2023-03-17T06:31:41.086Z,22.53
2023-03-17T06:32:41.085Z,22.58
2023-03-17T06:33:41.066Z,22.60
2023-03-17T06:34:41.083Z,22.65
2023-03-17T06:35:41.125Z,22.68
2023-03-17T06:36:41.126Z,22.71
2023-03-17T06:37:41.196Z,22.75
2023-03-17T06:38:41.267Z,22.77
2023-03-17T06:39:41.339Z,22.80
2023-03-17T06:40:41.402Z,22.84
2023-03-17T06:41:41.461Z,22.88
2023-03-17T06:42:41.514Z,22.92
2023-03-17T06:43:41.563Z,22.94
2023-03-17T06:44:41.666Z,22.97
2023-03-17T06:45:41.671Z,22.99
2023-03-17T06:46:41.754Z,23.02
2023-03-17T06:47:41.782Z,23.04
2023-03-17T06:48:41.821Z,23.06
2023-03-17T06:49:41.878Z,23.08
2023-03-17T06:50:41.934Z,23.08
2023-03-17T06:51:41.964Z,23.08
2023-03-17T06:52:42.008Z,23.09
2023-03-17T06:53:42.056Z,23.11
2023-03-17T06:54:42.097Z,23.12
2023-03-17T06:55:42.139Z,23.13
2023-03-17T06:56:42.201Z,23.14
2023-03-17T06:57:42.240Z,23.16
2023-03-17T06:58:42.265Z,23.15
2023-03-17T06:59:42.326Z,23.13
2023-03-17T07:00:42.357Z,23.12
2023-03-17T07:01:42.501Z,23.13
2023-03-17T07:02:42.466Z,23.15
2023-03-17T07:03:42.525Z,23.18
2023-03-17T07:04:42.637Z,23.22
2023-03-17T07:05:42.624Z,23.23
2023-03-17T07:06:42.683Z,23.24
2023-03-17T07:07:42.756Z,23.25
2023-03-17T07:08:42.800Z,23.25
2023-03-17T07:09:42.857Z,23.26
2023-03-17T07:10:42.962Z,23.26
2023-03-17T07:11:42.952Z,23.26
2023-03-17T07:12:42.995Z,23.26
2023-03-17T07:13:43.117Z,23.27
2023-03-17T07:14:43.070Z,23.28
2023-03-17T07:15:43.120Z,23.29
2023-03-17T07:16:43.173Z,23.29
2023-03-17T07:17:43.289Z,23.30
2023-03-17T07:18:43.229Z,23.31
2023-03-17T07:19:44.045Z,23.31
2023-03-17T07:20:43.273Z,23.32
2023-03-17T07:21:44.890Z,23.33
2023-03-17T07:22:43.565Z,23.34
2023-03-17T07:23:43.553Z,23.34
2023-03-17T07:24:43.636Z,23.37
2023-03-17T07:25:43.620Z,23.37
2023-03-17T07:26:43.682Z,23.39
2023-03-17T07:27:44.041Z,23.41
2023-03-17T07:28:43.725Z,23.44
2023-03-17T07:29:43.784Z,23.46
2023-03-17T07:30:43.810Z,23.47
2023-03-17T07:31:43.862Z,23.49
2023-03-17T07:32:44.019Z,23.51
2023-03-17T07:33:43.894Z,23.52
2023-03-17T07:34:43.946Z,23.54
2023-03-17T07:35:43.975Z,23.55
2023-03-17T07:36:43.954Z,23.58
2023-03-17T07:37:44.030Z,23.59
2023-03-17T07:38:44.045Z,23.62
2023-03-17T07:39:44.058Z,23.65
2023-03-17T07:40:44.075Z,23.67
2023-03-17T07:41:44.120Z,23.69
2023-03-17T07:42:44.172Z,23.70
2023-03-17T07:43:44.190Z,23.72
2023-03-17T07:44:44.237Z,23.73
2023-03-17T07:45:44.272Z,23.76
2023-03-17T07:46:44.299Z,23.78
2023-03-17T07:47:44.332Z,23.79
2023-03-17T07:48:44.393Z,23.79
2023-03-17T07:49:44.470Z,23.80
2023-03-17T07:50:44.517Z,23.81
2023-03-17T07:51:44.557Z,23.84
2023-03-17T07:52:44.612Z,23.85
2023-03-17T07:53:44.702Z,23.87
2023-03-17T07:54:44.732Z,23.89
2023-03-17T07:55:44.800Z,23.91
2023-03-17T07:56:44.868Z,23.92
2023-03-17T07:57:44.994Z,23.93
2023-03-17T07:58:45.035Z,23.95
2023-03-17T07:59:45.133Z,23.97
2023-03-17T08:00:45.174Z,23.99
2023-03-17T08:01:45.322Z,24.00
2023-03-17T08:02:46.838Z,24.01
2023-03-17T08:03:45.342Z,24.03
2023-03-17T08:04:45.326Z,24.04
2023-03-17T08:05:45.335Z,24.05
2023-03-17T08:06:45.339Z,24.07
2023-03-17T08:07:45.342Z,24.09
2023-03-17T08:08:45.407Z,24.10
2023-03-17T08:09:45.377Z,24.11
2023-03-17T08:10:45.375Z,24.12
2023-03-17T08:11:45.373Z,24.13
2023-03-17T08:12:45.550Z,24.15
2023-03-17T08:13:45.381Z,24.15
2023-03-17T08:14:45.393Z,24.17
2023-03-17T08:15:45.466Z,24.18
2023-03-17T08:16:45.459Z,24.18
2023-03-17T08:17:45.421Z,24.20
2023-03-17T08:18:46.511Z,24.19
2023-03-17T08:19:45.449Z,24.19
2023-03-17T08:20:45.450Z,24.19
2023-03-17T08:21:45.424Z,24.20
2023-03-17T08:22:45.470Z,24.20
2023-03-17T08:24:46.667Z,24.15
2023-03-17T08:25:45.860Z,24.13
2023-03-17T08:26:45.705Z,24.11
2023-03-17T08:27:45.793Z,24.10
2023-03-17T08:28:45.851Z,24.10
2023-03-17T08:29:45.920Z,24.10
2023-03-17T08:30:47.514Z,24.10
2023-03-17T08:31:46.761Z,24.12
2023-03-17T08:32:46.014Z,24.10
2023-03-17T08:33:45.982Z,24.11
2023-03-17T08:34:46.198Z,24.10
2023-03-17T08:35:46.056Z,24.10
2023-03-17T08:36:46.015Z,24.10
2023-03-17T08:37:46.078Z,24.11
2023-03-17T08:38:46.010Z,24.12
2023-03-17T09:25:48.010Z,23.76
2023-03-17T09:26:48.061Z,23.65
2023-03-17T09:27:48.119Z,23.52
2023-03-17T09:28:48.193Z,23.42
2023-03-17T09:29:48.286Z,23.36
2023-03-17T09:30:49.009Z,23.31
2023-03-17T09:31:48.429Z,23.30
2023-03-17T09:32:48.534Z,23.31
2023-03-17T09:33:48.563Z,23.33
2023-03-17T09:34:51.487Z,23.35
2023-03-17T09:35:48.600Z,23.39
2023-03-17T09:36:48.595Z,23.43
2023-03-17T09:37:48.629Z,23.45
2023-03-17T09:38:48.621Z,23.48
2023-03-17T09:39:48.636Z,23.50
2023-03-17T09:40:48.651Z,23.52
2023-03-17T09:41:48.677Z,23.54
2023-03-17T09:42:48.680Z,23.57
2023-03-17T09:43:48.691Z,23.58
2023-03-17T09:44:48.703Z,23.60
2023-03-17T09:45:48.712Z,23.62
2023-03-17T09:46:48.820Z,23.63
2023-03-17T09:47:48.729Z,23.65
2023-03-17T09:48:48.740Z,23.66
2023-03-17T09:49:48.749Z,23.67
2023-03-17T09:50:48.757Z,23.70
2023-03-17T09:51:48.781Z,23.69
2023-03-17T09:52:51.104Z,23.72
2023-03-17T09:53:49.021Z,23.72
2023-03-17T09:54:49.096Z,23.73
2023-03-17T09:55:49.170Z,23.75
2023-03-17T09:56:49.251Z,23.76
2023-03-17T09:57:49.335Z,23.77
2023-03-17T09:58:51.196Z,23.79
2023-03-17T09:59:49.484Z,23.80
2023-03-17T10:00:49.544Z,23.82
2023-03-17T10:01:49.634Z,23.83
2023-03-17T10:02:49.685Z,23.84
2023-03-17T10:03:49.750Z,23.85
2023-03-17T10:04:49.843Z,23.87
2023-03-17T10:05:49.945Z,23.89
2023-03-17T10:06:49.952Z,23.90
2023-03-17T10:07:50.010Z,23.91
2023-03-17T10:08:50.069Z,23.92
2023-03-17T10:09:50.128Z,23.93
2023-03-17T10:10:51.102Z,23.93
2023-03-17T10:11:50.255Z,23.93
2023-03-17T12:32:57.058Z,24.23
2023-03-17T12:33:57.017Z,24.22
2023-03-17T12:34:57.522Z,24.21
2023-03-17T12:35:57.195Z,24.20
2023-03-17T12:36:57.222Z,24.19
2023-03-17T12:37:57.278Z,24.19
2023-03-17T12:38:57.342Z,24.18
2023-03-17T12:39:57.397Z,24.19
2023-03-17T12:40:57.445Z,24.18
2023-03-17T12:41:57.510Z,24.18
2023-03-17T12:42:57.546Z,24.17
2023-03-17T12:43:57.612Z,24.16
2023-03-17T12:44:57.678Z,24.16
2023-03-17T12:45:57.774Z,24.14
2023-03-17T12:46:57.784Z,24.14
2023-03-17T12:47:57.855Z,24.13
2023-03-17T12:48:57.933Z,24.13
2023-03-17T12:49:58.009Z,24.11
2023-03-17T12:50:58.049Z,24.10
2023-03-17T12:51:58.132Z,24.10
2023-03-17T12:52:58.169Z,24.09
2023-03-17T12:53:58.213Z,24.08
2023-03-17T12:54:58.266Z,24.08
2023-03-17T12:55:58.289Z,24.08
2023-03-17T12:56:58.335Z,24.08
2023-03-17T12:57:58.345Z,24.09
2023-03-17T12:58:58.361Z,24.08
2023-03-17T12:59:58.366Z,24.07
2023-03-17T13:00:58.377Z,24.06
2023-03-17T13:01:58.529Z,24.06
2023-03-17T13:02:58.433Z,24.05
2023-03-17T13:03:58.430Z,24.04
2023-03-17T13:04:58.472Z,24.03
2023-03-17T13:05:58.452Z,24.03
2023-03-17T13:06:58.588Z,24.03
2023-03-17T13:07:58.477Z,24.03
2023-03-17T13:08:58.490Z,24.02
2023-03-17T13:09:58.502Z,24.01
2023-03-17T13:10:58.509Z,24.01
2023-03-17T13:11:58.545Z,24.00
2023-03-17T13:12:58.532Z,24.00
2023-03-17T13:13:58.547Z,23.99
2023-03-17T13:14:58.548Z,23.97
2023-03-17T13:15:58.569Z,23.97
2023-03-17T13:16:58.572Z,23.96
2023-03-17T13:17:58.583Z,23.96
2023-03-17T13:18:58.587Z,23.95
2023-03-17T13:19:58.615Z,23.94
2023-03-17T13:20:58.621Z,23.94
2023-03-17T13:21:58.641Z,23.92
2023-03-17T13:22:58.644Z,23.92
2023-03-17T13:23:58.669Z,23.92
2023-03-17T13:24:58.685Z,23.91
2023-03-17T13:25:58.698Z,23.90
2023-03-17T13:26:58.728Z,23.90
2023-03-17T13:27:58.722Z,23.90
2023-03-17T13:28:58.740Z,23.90
2023-03-17T13:29:58.763Z,23.89
2023-03-17T13:30:58.819Z,23.89
2023-03-17T13:31:58.810Z,23.88
2023-03-17T13:32:58.944Z,23.89
2023-03-17T13:33:58.848Z,23.88
2023-03-17T13:34:58.857Z,23.87
2023-03-17T13:35:58.951Z,23.86
2023-03-17T13:36:58.923Z,23.86
2023-03-17T13:37:58.937Z,23.86
2023-03-17T13:39:17.805Z,23.85
2023-03-17T13:39:59.986Z,23.85
2023-03-17T13:40:58.967Z,23.84
2023-03-17T13:42:01.071Z,23.83
2023-03-17T13:42:59.972Z,23.81
2023-03-17T13:43:58.976Z,23.81
2023-03-17T13:44:58.996Z,23.80
2023-03-17T13:45:59.002Z,23.80
2023-03-17T13:46:59.061Z,23.79
2023-03-17T13:47:59.020Z,23.79
2023-03-17T13:48:59.024Z,23.78
2023-03-17T13:49:59.042Z,23.76
2023-03-17T13:50:59.041Z,23.75
2023-03-17T13:52:00.511Z,23.75
2023-03-17T13:52:59.055Z,23.74
2023-03-17T13:53:59.057Z,23.73
2023-03-17T13:54:59.090Z,23.73
2023-03-17T13:55:59.149Z,23.72
2023-03-17T13:56:59.128Z,23.71
2023-03-17T13:57:59.108Z,23.70
2023-03-17T13:58:59.124Z,23.70
2023-03-17T13:59:59.131Z,23.70
2023-03-17T14:00:59.167Z,23.69
2023-03-17T14:01:59.165Z,23.68
2023-03-17T14:02:59.162Z,23.67
2023-03-17T14:03:59.208Z,23.66
2023-03-17T14:04:59.197Z,23.65
2023-03-17T14:05:59.201Z,23.64
2023-03-17T14:06:59.225Z,23.62
2023-03-17T14:07:59.228Z,23.62
2023-03-17T14:08:59.256Z,23.61
2023-03-17T14:09:59.357Z,23.60
2023-03-17T14:10:59.349Z,23.60
2023-03-17T14:11:59.379Z,23.59
2023-03-17T14:12:59.425Z,23.58
2023-03-17T14:13:59.458Z,23.57
2023-03-17T14:14:59.501Z,23.56
2023-03-17T14:15:59.572Z,23.55
2023-03-17T14:16:59.574Z,23.55
2023-03-17T14:17:59.619Z,23.54
2023-03-17T14:18:59.656Z,23.53
2023-03-17T14:19:59.687Z,23.53
2023-03-17T14:20:59.721Z,23.53
2023-03-17T14:21:59.775Z,23.52
2023-03-17T14:22:59.810Z,23.50
2023-03-17T14:23:59.848Z,23.50
2023-03-17T14:24:59.900Z,23.49
2023-03-17T14:25:59.951Z,23.48
2023-03-17T14:26:59.976Z,23.48
2023-03-17T14:28:00.069Z,23.48
2023-03-17T14:29:00.074Z,23.47
2023-03-17T14:30:00.130Z,23.46
2023-03-17T14:31:00.166Z,23.45
2023-03-17T14:32:00.313Z,23.45
2023-03-17T14:33:00.276Z,23.44
2023-03-17T14:34:00.358Z,23.43
2023-03-17T14:35:00.372Z,23.42
2023-03-17T14:36:00.474Z,23.42
2023-03-17T14:37:00.473Z,23.42
2023-03-17T14:38:00.521Z,23.41
2023-03-17T14:39:00.573Z,23.40
2023-03-17T14:40:00.627Z,23.40
2023-03-17T14:41:00.689Z,23.39
2023-03-17T14:42:00.752Z,23.38
2023-03-17T14:43:00.810Z,23.37
2023-03-17T14:44:00.857Z,23.37
2023-03-17T14:45:01.084Z,23.36
2023-03-17T14:46:01.029Z,23.36
2023-03-17T14:47:01.019Z,23.36
2023-03-17T14:48:01.222Z,23.36
2023-03-17T14:49:01.158Z,23.36
2023-03-17T14:50:01.202Z,23.36
2023-03-17T14:51:01.247Z,23.36
2023-03-17T14:52:01.304Z,23.36
2023-03-17T14:53:01.375Z,23.34
2023-03-17T14:54:01.431Z,23.34
2023-03-17T14:55:01.463Z,23.34
2023-03-17T14:56:01.522Z,23.34
2023-03-17T14:57:01.569Z,23.33
2023-03-17T16:26:15.572Z,23.01
2023-03-17T16:27:09.017Z,23.00
2023-03-17T16:28:08.036Z,23.01
2023-03-17T16:29:08.040Z,22.98
2023-03-17T16:30:08.048Z,22.98
2023-03-17T16:31:08.081Z,22.98
2023-03-17T16:32:08.092Z,22.97
2023-03-17T16:33:08.148Z,22.98
2023-03-17T16:34:08.120Z,22.97
2023-03-17T16:35:08.148Z,22.97
2023-03-17T16:36:08.253Z,22.96
2023-03-17T16:37:08.335Z,22.95
2023-03-17T16:38:08.413Z,22.95
2023-03-17T16:39:08.491Z,22.95
2023-03-17T16:40:08.588Z,22.95
2023-03-17T16:41:08.650Z,22.94
2023-03-17T16:42:08.733Z,22.93
2023-03-17T16:43:22.498Z,22.93
2023-03-17T16:44:09.797Z,22.93
2023-03-17T16:45:08.817Z,22.92
2023-03-17T16:46:08.876Z,22.92
2023-03-17T16:47:08.855Z,22.92
2023-03-17T16:48:08.868Z,22.92
2023-03-17T16:49:08.884Z,22.91
2023-03-17T16:50:08.905Z,22.91
2023-03-17T16:51:08.925Z,22.91
2023-03-17T16:52:08.981Z,22.90
2023-03-17T16:53:09.047Z,22.90
2023-03-17T16:54:09.137Z,22.90
2023-03-17T16:55:09.192Z,22.90
2023-03-17T16:56:09.255Z,22.89
2023-03-17T16:57:09.299Z,22.89
2023-03-17T16:58:09.373Z,22.88
2023-03-17T16:59:09.453Z,22.88
2023-03-17T17:00:09.510Z,22.88
2023-03-17T17:01:09.557Z,22.86
2023-03-17T17:02:09.612Z,22.87
2023-03-17T17:03:09.697Z,22.87
2023-03-17T17:04:09.724Z,22.86
2023-03-17T17:05:09.776Z,22.86
2023-03-17T17:06:09.827Z,22.86
2023-03-17T17:07:09.900Z,22.86
2023-03-17T17:08:09.991Z,22.84
2023-03-17T17:09:10.069Z,22.83
2023-03-17T17:10:10.156Z,22.85
2023-03-17T17:11:10.241Z,22.83
2023-03-17T17:12:10.264Z,22.83
2023-03-17T17:13:10.293Z,22.82
2023-03-17T17:14:10.304Z,22.83
2023-03-17T17:15:10.351Z,22.82
2023-03-17T17:16:10.414Z,22.82
2023-03-17T17:17:10.502Z,22.81
2023-03-17T17:18:10.634Z,22.81
2023-03-17T17:19:10.655Z,22.81
2023-03-17T17:20:10.703Z,22.80
2023-03-17T17:21:10.749Z,22.80
2023-03-17T17:22:10.795Z,22.79
2023-03-17T17:23:10.901Z,22.79
2023-03-17T17:24:10.831Z,22.79
2023-03-17T17:25:10.888Z,22.78
2023-03-17T17:26:10.906Z,22.78
2023-03-17T17:27:10.927Z,22.77
2023-03-17T17:28:10.947Z,22.77
2023-03-17T17:29:10.976Z,22.77
2023-03-17T17:30:10.993Z,22.76
2023-03-17T17:31:11.141Z,22.76
2023-03-17T17:32:11.101Z,22.76
2023-03-17T17:33:11.137Z,22.76
2023-03-17T17:34:11.156Z,22.75
2023-03-17T17:35:11.187Z,22.75
2023-03-17T17:36:11.241Z,22.75
2023-03-17T17:37:11.264Z,22.75
2023-03-17T17:38:11.297Z,22.74
2023-03-17T17:39:11.299Z,22.74
2023-03-17T17:40:11.328Z,22.73
2023-03-17T17:41:11.354Z,22.73
2023-03-17T17:42:11.375Z,22.73
2023-03-17T17:43:11.577Z,22.73
2023-03-17T17:44:11.507Z,22.72
2023-03-17T17:45:11.540Z,22.72
2023-03-17T17:46:11.559Z,22.71
2023-03-17T17:47:11.589Z,22.72
2023-03-17T17:48:11.621Z,22.71
2023-03-17T17:49:11.720Z,22.71
2023-03-17T17:50:11.847Z,22.71
2023-03-17T17:51:11.978Z,22.70
2023-03-17T17:52:12.062Z,22.70
2023-03-17T17:53:12.074Z,22.70
2023-03-17T17:54:12.122Z,22.70
2023-03-17T17:55:12.125Z,22.70
2023-03-17T17:56:12.133Z,22.69
2023-03-17T17:57:12.253Z,22.69
2023-03-17T17:58:12.295Z,22.69
2023-03-17T17:59:12.305Z,22.68
2023-03-17T18:00:12.329Z,22.69
2023-03-17T18:01:12.425Z,22.67
2023-03-17T18:02:12.387Z,22.67
2023-03-17T18:03:12.408Z,22.67
2023-03-17T18:04:12.441Z,22.67
2023-03-17T18:05:12.463Z,22.66
2023-03-17T18:06:12.461Z,22.66
2023-03-17T18:07:12.493Z,22.66
2023-03-17T18:08:12.610Z,22.66
2023-03-17T18:09:12.633Z,22.66
2023-03-17T18:10:12.673Z,22.65
2023-03-17T18:11:12.680Z,22.65
2023-03-17T18:12:12.706Z,22.65
2023-03-17T18:13:12.739Z,22.64
2023-03-17T18:14:12.846Z,22.64
2023-03-17T18:15:12.864Z,22.64
2023-03-17T18:16:12.960Z,22.63
2023-03-17T18:17:12.902Z,22.63
2023-03-17T18:18:12.933Z,22.64
2023-03-17T18:19:12.941Z,22.63
2023-03-17T18:20:13.064Z,22.63
2023-03-17T18:21:13.174Z,22.63
2023-03-17T18:22:13.297Z,22.63
2023-03-17T18:23:13.320Z,22.62
2023-03-17T18:24:13.365Z,22.62
2023-03-17T18:25:13.381Z,22.62
2023-03-17T18:26:13.426Z,22.62
2023-03-17T18:27:13.438Z,22.62
2023-03-17T18:28:13.496Z,22.62
2023-03-17T18:29:13.542Z,22.62
2023-03-17T18:30:13.557Z,22.61
2023-03-17T18:31:13.571Z,22.61
2023-03-17T18:32:13.608Z,22.61
2023-03-17T18:33:13.731Z,22.60
2023-03-17T18:34:13.765Z,22.61
2023-03-17T18:35:13.799Z,22.61
2023-03-17T18:36:13.818Z,22.61
2023-03-17T18:37:13.858Z,22.60
2023-03-17T18:38:13.891Z,22.60
2023-03-17T18:39:14.004Z,22.60
2023-03-17T18:40:18.163Z,22.60
2023-03-17T18:41:14.162Z,22.60
2023-03-17T18:42:14.160Z,22.59
2023-03-17T18:43:14.197Z,22.59
2023-03-17T18:44:14.231Z,22.59
2023-03-17T18:45:14.241Z,22.59
2023-03-17T18:46:14.330Z,22.59
2023-03-17T18:47:14.266Z,22.58
2023-03-17T18:48:14.287Z,22.58
2023-03-17T18:49:14.336Z,22.58
2023-03-17T18:50:14.335Z,22.58
2023-03-17T18:51:14.350Z,22.58
2023-03-17T18:52:15.318Z,22.58
2023-03-17T18:53:14.387Z,22.57
2023-03-17T18:54:14.413Z,22.57
2023-03-17T18:55:14.433Z,22.56
2023-03-17T18:56:14.455Z,22.57
2023-03-17T18:57:14.470Z,22.57
2023-03-17T18:58:14.500Z,22.56
2023-03-17T18:59:14.530Z,22.56
2023-03-17T19:00:14.581Z,22.56
2023-03-17T19:01:14.690Z,22.56
2023-03-17T19:02:14.580Z,22.56
2023-03-17T19:03:14.677Z,22.55
2023-03-17T19:04:14.621Z,22.56
2023-03-17T19:05:14.641Z,22.55
2023-03-17T19:06:14.663Z,22.55
2023-03-17T19:07:14.667Z,22.54
2023-03-17T19:08:14.688Z,22.54
2023-03-17T19:09:14.712Z,22.54
2023-03-17T19:10:14.741Z,22.55
2023-03-17T19:11:14.761Z,22.53
2023-03-17T19:12:14.761Z,22.54
2023-03-17T19:13:14.793Z,22.54
2023-03-17T19:14:14.858Z,22.53
2023-03-17T19:15:14.879Z,22.53
2023-03-17T19:16:14.953Z,22.52
2023-03-17T19:17:14.935Z,22.52
2023-03-17T19:18:14.965Z,22.52
2023-03-17T19:19:15.005Z,22.52
2023-03-17T19:20:15.061Z,22.52
2023-03-17T19:21:15.077Z,22.52
2023-03-17T19:22:15.099Z,22.52
2023-03-17T19:23:15.135Z,22.51
2023-03-17T19:24:15.161Z,22.51
2023-03-17T19:25:15.213Z,22.50
2023-03-17T19:26:15.251Z,22.51
2023-03-17T19:27:15.276Z,22.51
2023-03-17T19:28:15.297Z,22.51
2023-03-17T19:29:15.330Z,22.50
2023-03-17T19:30:15.455Z,22.50
2023-03-17T19:31:15.510Z,22.50
2023-03-17T19:32:15.525Z,22.50
2023-03-17T19:33:15.632Z,22.50
2023-03-17T19:34:15.600Z,22.50
2023-03-17T19:35:15.614Z,22.49
2023-03-17T19:36:15.639Z,22.49
2023-03-17T19:37:15.660Z,22.49
2023-03-17T19:38:15.683Z,22.49
2023-03-17T19:39:15.716Z,22.49
2023-03-17T19:40:15.744Z,22.49
2023-03-17T19:41:15.862Z,22.48
2023-03-17T19:42:15.935Z,22.48
2023-03-17T19:43:28.817Z,22.48
2023-03-17T19:44:17.005Z,22.47
2023-03-17T19:45:16.018Z,22.47
2023-03-17T19:46:16.101Z,22.47
2023-03-17T19:47:16.042Z,22.46
2023-03-17T19:48:16.060Z,22.47
2023-03-17T19:49:16.081Z,22.46
2023-03-17T19:50:16.098Z,22.47
2023-03-17T19:51:16.113Z,22.46
2023-03-17T19:52:16.132Z,22.46
2023-03-17T19:53:16.145Z,22.46
2023-03-17T19:54:16.168Z,22.45
2023-03-17T19:55:16.184Z,22.45
2023-03-17T19:56:16.361Z,22.45
2023-03-17T19:57:16.241Z,22.45
2023-03-17T19:58:16.251Z,22.45
2023-03-17T19:59:16.291Z,22.45
2023-03-17T20:00:16.322Z,22.45
2023-03-17T20:01:16.339Z,22.45
2023-03-17T20:02:16.353Z,22.44
2023-03-17T20:03:16.370Z,22.44
2023-03-17T20:04:16.435Z,22.44
2023-03-17T20:05:16.397Z,22.43
2023-03-17T20:06:16.412Z,22.44
2023-03-17T20:07:16.481Z,22.44
2023-03-17T20:08:16.453Z,22.43
2023-03-17T20:09:16.510Z,22.43
2023-03-17T20:10:16.495Z,22.43
2023-03-17T20:11:16.513Z,22.43
2023-03-17T20:12:16.534Z,22.42
2023-03-17T20:13:16.562Z,22.42
2023-03-17T20:14:16.599Z,22.42
2023-03-17T20:15:16.612Z,22.42
2023-03-17T20:16:16.798Z,22.42
2023-03-17T20:45:17.997Z,22.39
2023-03-17T20:46:18.096Z,22.38
2023-03-17T20:47:18.060Z,22.39
2023-03-17T20:48:18.095Z,22.38
2023-03-17T20:49:18.134Z,22.37
2023-03-17T20:50:18.188Z,22.38
2023-03-17T20:51:18.205Z,22.38
2023-03-17T20:52:18.241Z,22.37
2023-03-17T20:53:18.305Z,22.37
2023-03-17T20:54:18.321Z,22.37
2023-03-17T20:55:18.361Z,22.38
2023-03-17T20:56:18.384Z,22.38
2023-03-17T20:57:18.426Z,22.37
2023-03-17T20:58:18.460Z,22.37
2023-03-17T20:59:18.498Z,22.37
2023-03-17T21:00:18.537Z,22.37
2023-03-17T21:01:20.896Z,22.36
2023-03-17T21:02:18.704Z,22.36
2023-03-17T21:03:18.789Z,22.36
2023-03-17T21:04:18.783Z,22.35
2023-03-17T21:05:18.819Z,22.37
2023-03-17T21:06:18.845Z,22.36
2023-03-17T21:07:18.935Z,22.36
2023-03-17T21:08:18.987Z,22.36
2023-03-17T21:09:19.018Z,22.36
2023-03-17T21:10:19.069Z,22.36
2023-03-17T21:11:19.120Z,22.36
2023-03-17T21:12:19.152Z,22.35
2023-03-17T21:13:19.194Z,22.35
2023-03-17T21:14:19.251Z,22.34
2023-03-17T21:15:19.290Z,22.34
2023-03-17T21:16:19.343Z,22.35
2023-03-17T21:17:19.341Z,22.35
2023-03-17T21:18:19.415Z,22.34
2023-03-17T21:19:19.416Z,22.34
2023-03-17T21:20:19.462Z,22.34
2023-03-17T21:21:19.494Z,22.35
2023-03-17T21:22:19.567Z,22.34
2023-03-17T21:27:19.757Z,22.33
2023-03-17T21:31:19.900Z,22.33
2023-03-17T21:34:20.001Z,22.33
